x

West Santa Barbara 38 Nm West Of Santa Barbara, Ca (46054) Wave Buoy

11:50 - Thu 24th Apr 2014 All times are PDT. -7 hours from GMT.

  • Sig Wave height 8.2ft
  • Swell Direction
  • Peak Period 12s
  • Average Period 7s
  • Wind
    25mph, 29mph gusts
  • Sea Temp 54°f
  • Luft Temp 53°f
  • Sea Pressure 1015.9mb
  • West Santa Barbara  38 Nm West Of Santa Barbara, Ca
  • West Santa Barbara  38 Nm West Of Santa Barbara, Ca

More Historic Weather Station data

Upgrade to MSW Pro to gain access to the past 30 days of data for over 8000 Wavebouys and Weather Stations around the globe.

Join Pro

Comparision Forecast

View Surf forecast
   
Do 04/24 11:50 8ft 12s 7s 25 29 mph 1015.9mb 54f 53f
10:50 8ft 11s 7s 25 29 mph 1016.2mb 54f 55f
9:50 8ft 13s 6s 25 27 mph 1015.8mb 54f 56f
8:50 8.5ft 13s 7s 25 29 mph 1015.5mb 54f 54f
7:50 9ft 11s 7s 25 29 mph 1015mb 54f 55f
6:50 8.5ft 12s 7s 29 34 mph 1014mb 54f 54f
5:50 9ft 13s 7s 27 31 mph 1013.8mb 54f 54f
4:50 10ft 11s 7s 25 27 mph 1013.4mb 54f 54f
3:50 10ft 12s 7s 25 29 mph 1013.3mb 54f 54f
2:50 10ft 12s 7s 25 29 mph 1013.6mb 54f 55f
1:50 10ft 13s 7s 27 31 mph 1013.9mb 54f 54f
12:50 10ft 12s 7s 27 34 mph 1014.1mb 54f 54f
Mi 04/23 11:50 10ft 14s 7s 27 34 mph 1014.1mb 54f 54f
10:50 10ft 8s 7s 29 36 mph 1014.5mb 54f 54f
9:50 10.5ft 8s 7s 29 36 mph 1014.7mb 53f 54f
8:50 10ft 8s 7s 29 34 mph 1014.6mb 53f 54f
7:50 10ft 8s 7s 29 34 mph 1014.2mb 53f 54f
6:50 11ft 11s 7s 29 36 mph 1013.8mb 53f 54f
5:50 9.5ft 12s 7s 31 36 mph 1014.1mb 53f 54f
4:50 10ft 12s 7s 31 38 mph 1014.2mb 53f 54f
3:50 9.5ft 12s 6s 29 38 mph 1014.5mb 54f 54f
2:50 9ft 12s 6s 27 36 mph 1015.5mb 54f 54f
1:50 9.5ft 12s 6s 29 34 mph 1016mb 54f 54f
12:50 9ft 12s 7s 29 36 mph 1016.3mb 54f 54f
11:50 9ft 8s 7s 27 31 mph 1016.9mb 54f 53f
10:50 9ft 12s 7s 27 31 mph 1016.9mb 54f 54f
9:50 9ft 12s 7s 29 34 mph 1016.6mb 54f 53f
8:50 9ft 13s 7s 25 31 mph 1016.5mb 54f 53f
7:50 10ft 9s 7s 27 31 mph 1016.1mb 53f 53f
6:50 9ft 8s 7s 27 31 mph 1015.5mb 53f 53f
5:50 11ft 13s 7s 27 31 mph 1015.3mb 53f 53f
4:50 11ft 12s 7s 29 34 mph 1015.1mb 53f 53f
3:50 12.5ft 12s 8s 29 34 mph 1015.2mb 54f 53f
2:50 12.5ft 9s 8s 29 36 mph 1015.3mb 54f 53f
1:50 11ft 11s 7s 31 36 mph 1015.7mb 54f 53f
12:50 12ft 9s 7s 29 36 mph 1016mb 53f 54f
Di 04/22 11:50 12ft 8s 7s 31 36 mph 1015.4mb 53f 54f
10:50 12ft 12s 7s 31 38 mph 1015.5mb 53f 54f
9:50 12ft 13s 7s 31 38 mph 1015.5mb 53f 54f
8:50 11ft 8s 7s 31 38 mph 1015mb 53f 54f
7:50 12.5ft 13s 7s 27 34 mph 1014.8mb 53f 54f
6:50 12.5ft 13s 7s 31 40 mph 1014.3mb 53f 55f
5:50 12ft 8s 7s 34 43 mph 1014.5mb 53f 55f
4:50 12ft 13s 8s 31 38 mph 1014.6mb 54f 55f
3:50 11ft 13s 7s 29 36 mph 1014.5mb 54f 55f
2:50 12ft 13s 7s 31 38 mph 1014.7mb 54f 55f
1:50 11ft 14s 7s 29 36 mph 1015mb 54f 55f
12:50 11ft 14s 7s 29 34 mph 1015.7mb 54f 55f
11:50 9.5ft 14s 7s 31 40 mph 1015.9mb 54f 54f
10:50 9ft 13s 6s 27 34 mph 1016.9mb 55f 54f
9:50 10ft 14s 8s 31 38 mph 1016.9mb 55f 54f
8:50 9ft 13s 8s 29 36 mph 1016.1mb 54f 54f
7:50 8.5ft 14s 8s 25 31 mph 1016.3mb 54f 54f
6:50 8ft 13s 8s 18 20 mph 1015.8mb 54f 55f
5:50 8.5ft 13s 8s 18 22 mph 1015.4mb 54f 55f
4:50 8ft 14s 7s 22 29 mph 1015mb 55f 55f
3:50 9ft 12s 8s 25 29 mph 1014.8mb 55f 55f
2:50 9ft 14s 7s 25 31 mph 1014.6mb 55f 55f
1:50 9ft 14s 8s 25 27 mph 1014.8mb 55f 55f
12:50 8.5ft 14s 8s 22 29 mph 1014.8mb 55f 55f
Mo 04/21 11:50 8.5ft 14s 8s 25 27 mph 1015mb 55f 55f
10:50 8ft 15s 8s 22 27 mph 1015.1mb 56f 56f
9:50 9ft 14s 8s 18 22 mph 1015.1mb 56f 56f
8:50 10ft 14s 8s 25 29 mph 1015mb 56f 56f
7:50 8ft 15s 8s 25 29 mph 1014.7mb 56f 56f
6:50 7.5ft 15s 9s 22 27 mph 1014.5mb 56f 56f
5:50 8ft 14s 10s 11 13 mph 1014.9mb 56f 56f
4:50 9ft 14s 9s 9 11 mph 1015.3mb 56f 55f
3:50 9ft 15s 9s 9 13 mph 1016mb 56f 54f
2:50 10.5ft 15s 10s 4 7 mph 1016.6mb 56f 54f
1:50 10ft 14s 10s 7 9 mph 1017.4mb 56f 55f
12:50 11ft 15s 10s 2 4 mph 1018.1mb 56f 56f
11:50 10ft 15s 10s 4 9 mph 1018mb 56f 55f
10:50 12ft 15s 11s 11 13 mph 1017.6mb 56f 55f
9:50 10.5ft 14s 10s 11 16 mph 1017mb 55f 55f
8:50 12.5ft 15s 11s 13 18 mph 1016.8mb 56f 55f
7:50 11ft 15s 10s 9 11 mph 1016.8mb 55f 56f
6:50 11ft 15s 10s 7 9 mph 1016.4mb 56f 56f
5:50 12ft 15s 10s 7 9 mph 1016mb 56f 56f
4:50 12.5ft 15s 11s 4 7 mph 1015.8mb 56f 56f
3:50 11.5ft 15s 10s 7
mph
1015.6mb 56f 56f
2:50 11.5ft 15s 10s 9 11 mph 1015.9mb 55f 55f
1:50 13ft 15s 10s 13 16 mph 1015.9mb 55f 55f
12:50 12ft 15s 10s 18 22 mph 1016.5mb 55f 55f
So 04/20 11:50 13.5ft 15s 11s 16 20 mph 1016.2mb 55f 55f
10:50 11ft 16s 10s 13 18 mph 1016.5mb 56f 56f
9:50 13ft 15s 11s 16 18 mph 1016.7mb 55f 56f
8:50 10ft 15s 10s 11 13 mph 1016.6mb 55f 56f